Time;durP1;ratioP1;P1;durP2;ratioP2;P2;SDS_P1;SDS_P2;PMS_P1;PMS_P2;Temp;Humidity;BMP_temperature;BMP_pressure;BME280_temperature;BME280_humidity;BME280_pressure;Samples;Min_cycle;Max_cycle;Signal;HPM_P1;HPM_P2
2022/03/05 00:01:09;;;;;;;34.50;18.67;;;;;;;1.91;75.17;100534.42;127512;1098;101042;-79
2022/03/05 00:03:41;;;;;;;37.20;20.00;;;;;;;1.91;75.49;100535.30;126252;1102;102103;-80
2022/03/05 00:06:12;;;;;;;37.50;21.17;;;;;;;1.90;75.25;100530.02;127405;1100;101813;-79
2022/03/05 00:08:44;;;;;;;36.93;19.80;;;;;;;1.89;75.25;100539.48;127387;1100;101646;-81
2022/03/05 00:11:15;;;;;;;37.77;19.77;;;;;;;1.90;74.70;100535.20;127380;1100;101539;-79
2022/03/05 00:13:47;;;;;;;40.47;20.50;;;;;;;1.89;75.38;100536.01;127359;1099;101086;-80
2022/03/05 00:16:18;;;;;;;38.90;20.53;;;;;;;1.87;75.00;100532.39;127542;1098;101538;-80
2022/03/05 00:18:52;;;;;;;37.47;20.77;;;;;;;1.86;75.16;100538.37;126218;1099;101910;-80
2022/03/05 00:21:23;;;;;;;37.80;20.20;;;;;;;1.88;75.36;100536.79;127215;1100;101630;-79
2022/03/05 00:23:55;;;;;;;37.73;20.63;;;;;;;1.88;74.71;100535.09;127011;1101;101489;-80
2022/03/05 00:26:26;;;;;;;38.10;20.37;;;;;;;1.88;75.40;100531.61;126268;1102;101534;-80
2022/03/05 00:28:57;;;;;;;41.93;22.00;;;;;;;1.86;75.10;100538.37;127227;1100;101575;-80
2022/03/05 00:31:29;;;;;;;38.80;21.93;;;;;;;1.85;75.40;100528.80;127152;1100;101893;-80
2022/03/05 00:34:00;;;;;;;38.10;20.60;;;;;;;1.83;75.62;100538.16;127101;1101;101586;-80
2022/03/05 00:36:31;;;;;;;35.57;20.13;;;;;;;1.80;75.29;100538.83;127405;1100;101533;-79
2022/03/05 00:39:03;;;;;;;38.07;20.50;;;;;;;1.82;75.40;100541.52;126234;1102;101639;-79
2022/03/05 00:41:34;;;;;;;38.00;20.07;;;;;;;1.81;75.17;100535.47;127434;1100;101174;-80
2022/03/05 00:44:06;;;;;;;38.23;20.90;;;;;;;1.79;75.34;100530.18;127248;1100;101870;-79
2022/03/05 00:46:40;;;;;;;37.43;19.23;;;;;;;1.79;75.20;100537.94;127366;1101;101510;-79
2022/03/05 00:49:11;;;;;;;33.85;18.52;;;;;;;1.76;75.13;100537.72;127409;1101;101523;-79
2022/03/05 00:51:44;;;;;;;33.87;18.10;;;;;;;1.74;74.77;100530.62;127390;1100;101581;-79
2022/03/05 00:54:15;;;;;;;35.60;18.40;;;;;;;1.74;74.96;100531.52;127209;1100;101345;-79
2022/03/05 00:56:49;;;;;;;33.47;17.50;;;;;;;1.74;74.80;100531.52;126253;1102;102007;-79
2022/03/05 00:59:21;;;;;;;31.37;16.87;;;;;;;1.72;74.31;100530.52;127407;1101;101571;-79
2022/03/05 01:01:52;;;;;;;31.30;17.27;;;;;;;1.71;74.51;100528.71;127388;1100;101523;-80
2022/03/05 01:04:29;;;;;;;35.00;17.13;;;;;;;1.68;73.84;100528.49;127259;1101;101498;-79
2022/03/05 01:07:02;;;;;;;30.83;16.07;;;;;;;1.65;73.34;100528.27;127380;1101;101643;-80
2022/03/05 01:09:40;;;;;;;31.77;16.20;;;;;;;1.65;73.69;100535.14;127401;1100;101894;-80
2022/03/05 01:12:12;;;;;;;30.83;16.00;;;;;;;1.63;73.50;100534.14;127123;1101;101749;-80
2022/03/05 01:14:43;;;;;;;31.13;16.27;;;;;;;1.58;73.84;100534.70;126697;1100;101524;-80
2022/03/05 01:17:15;;;;;;;29.90;15.87;;;;;;;1.56;73.81;100536.29;126244;1102;101718;-80
2022/03/05 01:19:47;;;;;;;33.83;16.93;;;;;;;1.55;73.83;100538.77;126908;1101;101967;-81
2022/03/05 01:22:19;;;;;;;34.63;17.17;;;;;;;1.53;73.52;100542.94;127042;1100;102932;-80
2022/03/05 01:24:50;;;;;;;34.07;17.13;;;;;;;1.54;74.02;100542.13;126831;1101;101701;-80
2022/03/05 01:27:22;;;;;;;32.07;16.37;;;;;;;1.52;74.12;100528.20;127139;1100;101552;-80
2022/03/05 01:29:53;;;;;;;32.23;15.93;;;;;;;1.53;74.14;100533.48;127393;1100;101501;-79
2022/03/05 01:32:25;;;;;;;36.37;17.17;;;;;;;1.54;73.95;100539.54;127446;1101;101487;-79
2022/03/05 01:34:58;;;;;;;29.17;14.67;;;;;;;1.52;74.29;100535.95;127242;1100;101842;-80
2022/03/05 01:37:30;;;;;;;32.95;16.60;;;;;;;1.52;74.29;100541.13;127419;1101;101591;-79
2022/03/05 01:40:02;;;;;;;33.73;17.60;;;;;;;1.51;73.95;100542.83;127529;1098;101508;-79
2022/03/05 01:42:36;;;;;;;33.23;16.70;;;;;;;1.50;74.24;100550.47;127546;1098;101073;-80
2022/03/05 01:45:10;;;;;;;33.17;17.10;;;;;;;1.48;73.51;100541.68;127253;1099;101470;-80
2022/03/05 01:47:42;;;;;;;31.17;16.37;;;;;;;1.44;73.96;100546.63;127423;1100;101999;-80
2022/03/05 01:50:14;;;;;;;30.63;15.17;;;;;;;1.44;73.77;100544.05;126240;1102;101724;-79
2022/03/05 01:52:48;;;;;;;32.23;16.27;;;;;;;1.43;73.85;100541.34;127397;1100;101533;-79
2022/03/05 01:55:19;;;;;;;31.60;16.13;;;;;;;1.42;73.54;100544.75;127226;1100;101510;-79
2022/03/05 01:57:51;;;;;;;30.17;16.03;;;;;;;1.42;74.00;100542.16;127421;1101;101528;-79
2022/03/05 02:00:23;;;;;;;30.53;15.73;;;;;;;1.41;73.88;100550.69;127404;1100;101920;-79
2022/03/05 02:02:54;;;;;;;32.40;16.80;;;;;;;1.42;73.83;100544.75;127389;1101;101738;-79
2022/03/05 02:05:27;;;;;;;31.87;16.13;;;;;;;1.40;73.72;100560.14;126916;1101;101526;-80
2022/03/05 02:08:00;;;;;;;31.97;16.47;;;;;;;1.37;73.89;100551.25;126856;1100;101607;-80
2022/03/05 02:10:33;;;;;;;33.83;15.97;;;;;;;1.36;73.58;100549.47;126267;1102;101567;-80
2022/03/05 02:13:05;;;;;;;31.13;16.00;;;;;;;1.34;73.31;100546.77;127404;1100;101809;-79
2022/03/05 02:15:40;;;;;;;31.50;16.10;;;;;;;1.35;74.06;100553.72;127210;1100;101924;-80
2022/03/05 02:18:14;;;;;;;33.73;17.37;;;;;;;1.36;73.68;100550.35;126259;1102;101688;-80
2022/03/05 02:20:47;;;;;;;30.40;15.93;;;;;;;1.40;73.78;100551.47;126211;1102;101577;-79
2022/03/05 02:23:20;;;;;;;34.37;18.17;;;;;;;1.38;73.87;100550.47;126261;1102;101146;-79
2022/03/05 02:25:59;;;;;;;33.97;18.03;;;;;;;1.34;73.85;100545.84;126222;1102;101914;-79
2022/03/05 02:28:33;;;;;;;31.40;16.33;;;;;;;1.31;73.95;100556.88;127339;1100;101571;-80
2022/03/05 02:31:07;;;;;;;35.23;17.23;;;;;;;1.28;73.95;100555.73;127389;1101;101530;-79
2022/03/05 02:33:39;;;;;;;37.40;18.83;;;;;;;1.27;73.98;100549.68;127396;1101;101581;-79
2022/03/05 02:36:11;;;;;;;36.80;18.40;;;;;;;1.29;73.85;100544.63;127279;1100;101534;-79
2022/03/05 02:38:45;;;;;;;36.53;18.00;;;;;;;1.29;73.87;100555.85;127424;1100;101884;-79
2022/03/05 02:41:18;;;;;;;38.30;20.60;;;;;;;1.32;74.29;100555.19;127398;1100;101777;-79
2022/03/05 02:43:50;;;;;;;39.42;19.37;;;;;;;1.30;74.21;100554.19;127423;1101;101092;-80
2022/03/05 02:46:28;;;;;;;38.83;20.70;;;;;;;1.26;74.19;100558.21;126190;1102;101552;-79
2022/03/05 02:49:00;;;;;;;37.57;19.27;;;;;;;1.22;74.13;100564.85;127429;1101;101533;-79
2022/03/05 02:51:33;;;;;;;37.80;20.47;;;;;;;1.20;74.13;100560.34;127401;1100;101878;-79
2022/03/05 02:54:05;;;;;;;39.80;21.43;;;;;;;1.18;74.12;100565.40;126195;1102;101948;-79
2022/03/05 02:56:37;;;;;;;40.03;20.50;;;;;;;1.15;74.15;100570.34;127264;1101;101548;-80
2022/03/05 02:59:09;;;;;;;38.50;19.43;;;;;;;1.11;74.24;100563.16;127357;1100;101503;-79
2022/03/05 03:01:40;;;;;;;36.87;19.33;;;;;;;1.12;74.04;100561.47;127415;1100;101829;-79
2022/03/05 03:04:11;;;;;;;36.63;19.53;;;;;;;1.12;74.31;100572.70;127399;1100;101935;-79
2022/03/05 03:06:50;;;;;;;38.00;19.17;;;;;;;1.14;74.51;100577.98;127248;1101;101530;-79
2022/03/05 03:09:21;;;;;;;43.97;20.73;;;;;;;1.11;74.28;100577.75;127417;1101;101658;-79
2022/03/05 03:11:53;;;;;;;40.37;20.47;;;;;;;1.11;74.07;100577.75;127385;1100;101486;-79
2022/03/05 03:14:25;;;;;;;42.73;20.77;;;;;;;1.13;74.30;100589.13;127432;1101;101508;-79
2022/03/05 03:16:57;;;;;;;41.77;20.67;;;;;;;1.11;74.42;100588.09;126201;1102;101833;-80
2022/03/05 03:19:30;;;;;;;40.28;21.07;;;;;;;1.09;74.37;100580.22;127441;1101;101505;-79
2022/03/05 03:22:02;;;;;;;41.90;21.97;;;;;;;1.10;74.45;100575.97;126274;1101;101609;-80
2022/03/05 03:24:33;;;;;;;43.30;22.23;;;;;;;1.07;74.49;100577.52;127415;1100;101607;-80
2022/03/05 03:27:05;;;;;;;43.83;23.40;;;;;;;1.05;74.34;100579.10;127244;1100;101077;-79
2022/03/05 03:29:36;;;;;;;39.77;21.00;;;;;;;1.05;74.76;100578.22;127430;1100;101899;-80
2022/03/05 03:32:09;;;;;;;38.70;20.40;;;;;;;1.02;74.83;100581.45;127385;1101;101638;-79
2022/03/05 03:34:40;;;;;;;42.67;22.13;;;;;;;0.98;74.40;100587.20;127404;1100;101562;-79
2022/03/05 03:37:11;;;;;;;40.30;22.07;;;;;;;0.93;74.23;100588.52;127272;1100;101526;-80
2022/03/05 03:39:45;;;;;;;43.97;22.80;;;;;;;0.89;74.56;100587.39;126351;1102;101635;-79
2022/03/05 03:42:22;;;;;;;43.63;23.00;;;;;;;0.88;74.60;100589.86;127410;1100;103025;-79
2022/03/05 03:44:55;;;;;;;37.73;19.87;;;;;;;0.86;74.61;100592.33;127395;1101;101517;-79
2022/03/05 03:47:26;;;;;;;39.17;21.43;;;;;;;0.85;74.62;100590.52;127276;1100;101577;-80
2022/03/05 03:49:58;;;;;;;40.67;21.90;;;;;;;0.86;74.71;100588.86;127403;1100;101525;-79
2022/03/05 03:52:32;;;;;;;47.45;22.70;;;;;;;0.88;74.71;100589.86;127425;1101;101511;-79
2022/03/05 03:55:05;;;;;;;45.43;23.40;;;;;;;0.89;74.94;100594.26;127416;1100;101887;-79
2022/03/05 03:57:36;;;;;;;41.17;22.03;;;;;;;0.87;74.66;100590.63;127241;1100;101568;-79
2022/03/05 04:00:13;;;;;;;45.73;24.23;;;;;;;0.83;74.80;100591.20;127424;1101;101559;-79
2022/03/05 04:02:45;;;;;;;45.40;23.57;;;;;;;0.81;74.73;100592.75;127407;1101;101526;-79
2022/03/05 04:05:16;;;;;;;47.43;24.93;;;;;;;0.79;74.75;100589.16;126968;1100;101097;-80
2022/03/05 04:10:38;;;;;;;46.27;25.40;;;;;;;0.76;74.93;100594.09;126234;1101;101537;-80
2022/03/05 04:13:09;;;;;;;46.53;24.70;;;;;;;0.75;75.19;100598.38;127310;1100;101753;-80
2022/03/05 04:15:41;;;;;;;45.70;23.57;;;;;;;0.72;75.06;100603.30;126950;1100;101595;-80
2022/03/05 04:18:12;;;;;;;46.70;22.77;;;;;;;0.68;74.87;100602.14;126699;1101;101936;-80
2022/03/05 04:20:43;;;;;;;43.70;24.03;;;;;;;0.68;75.25;100602.14;126558;1101;101906;-80
2022/03/05 04:23:15;;;;;;;45.47;24.00;;;;;;;0.67;75.34;100605.53;126635;1101;101992;-80
2022/03/05 04:25:46;;;;;;;42.30;22.10;;;;;;;0.65;75.34;100607.08;126489;1101;101989;-80
2022/03/05 04:28:19;;;;;;;44.47;22.67;;;;;;;0.65;75.37;100619.09;126516;1100;101625;-80
2022/03/05 04:30:50;;;;;;;46.70;25.13;;;;;;;0.64;75.70;100619.87;126863;1101;101600;-80
2022/03/05 04:33:21;;;;;;;45.60;23.73;;;;;;;0.60;75.55;100623.02;127125;1100;101885;-80
2022/03/05 04:35:53;;;;;;;43.87;23.20;;;;;;;0.55;75.20;100617.50;127327;1100;101531;-80
2022/03/05 04:38:25;;;;;;;43.50;21.23;;;;;;;0.52;75.91;100617.27;127258;1100;101869;-79
2022/03/05 04:40:56;;;;;;;43.17;22.00;;;;;;;0.48;75.04;100626.46;127401;1100;101572;-79
2022/03/05 04:43:28;;;;;;;40.40;20.27;;;;;;;0.45;75.44;100622.72;127447;1100;101543;-80
2022/03/05 04:45:59;;;;;;;42.87;21.27;;;;;;;0.42;75.93;100633.73;127419;1100;101819;-80
2022/03/05 04:48:30;;;;;;;40.07;21.50;;;;;;;0.41;75.53;100631.91;126226;1102;101308;-80
2022/03/05 04:51:02;;;;;;;41.43;20.70;;;;;;;0.41;75.61;100636.19;126771;1100;101608;-80
2022/03/05 04:53:33;;;;;;;40.80;20.43;;;;;;;0.42;75.22;100638.89;126539;1100;101658;-81
2022/03/05 04:56:05;;;;;;;38.77;20.10;;;;;;;0.43;75.07;100643.25;126563;1101;101605;-80
2022/03/05 04:58:36;;;;;;;40.33;18.60;;;;;;;0.43;76.01;100642.36;126425;1102;101869;-81
2022/03/05 05:01:08;;;;;;;36.17;18.93;;;;;;;0.42;75.60;100653.46;126542;1101;101234;-79
2022/03/05 05:03:39;;;;;;;36.83;19.20;;;;;;;0.41;75.58;100647.41;126788;1102;101223;-80
2022/03/05 05:06:11;;;;;;;38.33;18.83;;;;;;;0.43;75.92;100657.86;126658;1101;101581;-80
2022/03/05 05:08:43;;;;;;;36.57;17.40;;;;;;;0.40;75.23;100653.34;126956;1100;101618;-80
2022/03/05 05:11:14;;;;;;;36.97;19.60;;;;;;;0.39;75.17;100648.98;127071;1101;101990;-79
2022/03/05 05:13:45;;;;;;;36.53;17.97;;;;;;;0.42;75.46;100662.12;127254;1100;101771;-79
2022/03/05 05:16:17;;;;;;;35.93;17.27;;;;;;;0.43;75.84;100652.69;127401;1100;101495;-79
2022/03/05 05:21:37;;;;;;;35.40;17.10;;;;;;;0.43;75.62;100660.44;127006;1101;101564;-80
2022/03/05 05:24:09;;;;;;;38.20;18.03;;;;;;;0.43;75.75;100661.33;126953;1101;101900;-79
2022/03/05 05:26:40;;;;;;;35.97;17.60;;;;;;;0.45;75.68;100659.78;126814;1101;101821;-80
2022/03/05 05:29:12;;;;;;;35.80;17.53;;;;;;;0.46;75.46;100665.84;126688;1100;101642;-80
2022/03/05 05:31:43;;;;;;;32.67;16.63;;;;;;;0.49;75.65;100672.13;126639;1101;101639;-80
2022/03/05 05:34:15;;;;;;;36.53;16.63;;;;;;;0.51;75.53;100674.84;126454;1100;101672;-80
2022/03/05 05:36:47;;;;;;;34.87;17.33;;;;;;;0.56;75.47;100675.20;126793;1101;101875;-80
2022/03/05 05:39:18;;;;;;;35.80;17.37;;;;;;;0.64;76.00;100679.27;127003;1101;102123;-80
2022/03/05 05:41:50;;;;;;;35.07;18.47;;;;;;;0.69;75.42;100675.39;127410;1101;101517;-79
2022/03/05 05:44:21;;;;;;;34.30;17.80;;;;;;;0.74;75.78;100679.22;127427;1100;101568;-80
2022/03/05 05:46:52;;;;;;;33.43;17.33;;;;;;;0.78;75.67;100685.52;127418;1101;101443;-80
2022/03/05 05:49:24;;;;;;;37.87;16.83;;;;;;;0.81;75.33;100678.92;127234;1100;102970;-79
2022/03/05 05:51:55;;;;;;;33.80;17.43;;;;;;;0.85;75.45;100687.80;127337;1101;101748;-80
2022/03/05 05:54:27;;;;;;;35.77;17.83;;;;;;;0.83;75.53;100692.85;127386;1100;101507;-79
2022/03/05 05:56:58;;;;;;;34.43;17.00;;;;;;;0.82;75.37;100691.04;127406;1100;101646;-79
2022/03/05 05:59:30;;;;;;;32.50;16.10;;;;;;;0.86;75.40;100689.61;126259;1102;101532;-79
2022/03/05 06:02:03;;;;;;;34.70;16.10;;;;;;;0.89;75.33;100702.77;127404;1100;101900;-80
2022/03/05 06:04:38;;;;;;;32.67;15.63;;;;;;;0.88;75.53;100698.37;127146;1101;101491;-80
2022/03/05 06:07:09;;;;;;;34.07;17.17;;;;;;;0.89;75.51;100706.25;126717;1100;101214;-81
2022/03/05 06:09:40;;;;;;;34.93;16.80;;;;;;;0.89;75.57;100703.66;126986;1100;102722;-80
2022/03/05 06:12:12;;;;;;;33.53;16.97;;;;;;;0.91;75.36;100713.23;127082;1100;101573;-81
2022/03/05 06:14:44;;;;;;;31.47;16.50;;;;;;;0.91;75.53;100713.23;126904;1100;101923;-80
2022/03/05 06:17:15;;;;;;;34.07;16.40;;;;;;;0.89;75.22;100713.11;127000;1101;101621;-81
2022/03/05 06:19:47;;;;;;;31.73;15.77;;;;;;;0.91;75.33;100715.81;127053;1100;101579;-79
2022/03/05 06:22:18;;;;;;;32.50;16.33;;;;;;;0.93;75.30;100720.29;127170;1100;101505;-80
2022/03/05 06:24:49;;;;;;;35.67;17.00;;;;;;;0.96;75.14;100725.70;127155;1101;101602;-80
2022/03/05 06:27:21;;;;;;;32.00;15.67;;;;;;;0.99;75.28;100719.88;127384;1101;101810;-79
2022/03/05 06:29:52;;;;;;;32.80;16.27;;;;;;;1.00;74.97;100725.16;127224;1102;101588;-79
2022/03/05 06:32:24;;;;;;;35.73;16.30;;;;;;;1.02;75.14;100723.59;127413;1100;101606;-79
2022/03/05 06:34:55;;;;;;;35.93;17.07;;;;;;;1.08;75.31;100724.06;127398;1101;101077;-79
2022/03/05 06:37:26;;;;;;;35.90;17.07;;;;;;;1.17;75.01;100728.13;127407;1100;101501;-79
2022/03/05 06:39:58;;;;;;;33.83;15.63;;;;;;;1.19;74.96;100731.76;127254;1100;103414;-80
2022/03/05 06:42:29;;;;;;;35.87;16.77;;;;;;;1.27;74.83;100733.23;127372;1101;101504;-79
2022/03/05 06:45:01;;;;;;;34.83;16.57;;;;;;;1.33;75.25;100725.95;127422;1100;101537;-80
2022/03/05 06:47:32;;;;;;;32.20;15.77;;;;;;;1.37;74.95;100730.58;127394;1100;101581;-79
2022/03/05 06:50:03;;;;;;;29.70;15.93;;;;;;;1.46;74.85;100732.05;126198;1102;101552;-79
2022/03/05 06:52:35;;;;;;;30.30;14.27;;;;;;;1.52;74.68;100725.64;127424;1102;101902;-80
2022/03/05 06:55:08;;;;;;;28.83;13.63;;;;;;;1.51;74.07;100728.12;127413;1100;101674;-80
2022/03/05 06:57:40;;;;;;;29.47;14.33;;;;;;;1.48;73.48;100736.56;126217;1102;101616;-80
2022/03/05 07:00:14;;;;;;;28.90;13.70;;;;;;;1.55;74.38;100732.74;127235;1101;101421;-80
2022/03/05 07:02:43;;;;;;;;;;;;;;;1.58;72.94;100739.04;127660;1100;101496;-79
2022/03/05 07:05:16;;;;;;;29.70;13.40;;;;;;;1.69;73.71;100738.95;126294;1101;101832;-79
2022/03/05 07:07:47;;;;;;;27.80;14.03;;;;;;;1.83;73.71;100739.98;127378;1100;101702;-79
2022/03/05 07:10:18;;;;;;;28.87;12.13;;;;;;;1.93;73.12;100732.09;127290;1100;101533;-80
2022/03/05 07:12:51;;;;;;;29.67;13.37;;;;;;;1.99;73.59;100737.73;127391;1101;101639;-80
2022/03/05 07:15:22;;;;;;;28.10;13.00;;;;;;;2.07;72.97;100738.30;127130;1100;101557;-80
2022/03/05 07:17:54;;;;;;;25.93;12.00;;;;;;;2.19;73.20;100743.48;127407;1101;101877;-78
2022/03/05 07:20:25;;;;;;;27.83;12.47;;;;;;;2.28;73.65;100746.75;127318;1101;102298;-78
2022/03/05 07:22:56;;;;;;;28.57;12.77;;;;;;;2.37;73.05;100746.48;127366;1100;101567;-77
2022/03/05 07:25:29;;;;;;;26.77;12.80;;;;;;;2.44;72.41;100741.86;127405;1101;102007;-77
2022/03/05 07:28:00;;;;;;;26.13;12.53;;;;;;;2.49;72.74;100743.12;127413;1100;101028;-77
2022/03/05 07:30:32;;;;;;;25.23;12.37;;;;;;;2.56;72.70;100744.45;127401;1100;101937;-78
2022/03/05 07:33:03;;;;;;;24.80;11.50;;;;;;;2.60;72.23;100746.48;127368;1101;101728;-78
2022/03/05 07:35:34;;;;;;;27.77;12.03;;;;;;;2.64;72.32;100734.63;127379;1100;101595;-78
2022/03/05 07:38:06;;;;;;;27.70;12.90;;;;;;;2.70;71.98;100748.02;127399;1100;101574;-78
2022/03/05 07:40:37;;;;;;;24.20;11.47;;;;;;;2.75;71.12;100743.17;127407;1101;101490;-77
2022/03/05 07:43:08;;;;;;;25.43;11.73;;;;;;;2.81;71.29;100749.67;127370;1100;117883;-78
2022/03/05 07:45:40;;;;;;;24.20;10.33;;;;;;;2.83;70.25;100740.30;126216;1101;101551;-78
2022/03/05 07:48:11;;;;;;;24.40;10.83;;;;;;;2.86;69.66;100748.30;127409;1100;101524;-78
2022/03/05 07:50:43;;;;;;;24.07;11.00;;;;;;;2.85;70.05;100738.74;127414;1099;101539;-78
2022/03/05 07:53:14;;;;;;;26.67;11.37;;;;;;;2.89;70.39;100742.44;127327;1101;101501;-78
2022/03/05 07:55:46;;;;;;;23.73;10.37;;;;;;;2.92;69.33;100737.47;127402;1101;101917;-78
2022/03/05 07:58:17;;;;;;;24.93;11.23;;;;;;;2.96;69.98;100746.35;127374;1100;101724;-78
2022/03/05 08:00:49;;;;;;;24.63;11.13;;;;;;;2.95;69.77;100735.09;126265;1101;101572;-78
2022/03/05 08:03:20;;;;;;;26.17;11.93;;;;;;;2.98;68.86;100740.49;127150;1101;102075;-78
2022/03/05 08:05:52;;;;;;;25.63;11.47;;;;;;;2.99;68.46;100746.56;126307;1102;101631;-78
2022/03/05 08:08:23;;;;;;;23.93;10.23;;;;;;;2.94;69.34;100745.36;127320;1100;102015;-78
2022/03/05 08:10:54;;;;;;;22.77;10.17;;;;;;;2.91;68.72;100746.03;127295;1100;101509;-78
2022/03/05 08:13:29;;;;;;;24.33;10.37;;;;;;;2.91;68.10;100750.33;127195;1100;101490;-79
2022/03/05 08:16:00;;;;;;;24.23;10.60;;;;;;;2.89;68.67;100750.22;127294;1100;101643;-77
2022/03/05 08:18:32;;;;;;;23.60;10.77;;;;;;;2.92;69.27;100754.73;127426;1100;101528;-77
2022/03/05 08:21:04;;;;;;;22.93;11.40;;;;;;;2.94;69.41;100751.43;127403;1100;103114;-78
2022/03/05 08:23:36;;;;;;;25.60;12.00;;;;;;;2.95;68.83;100761.02;127124;1100;101804;-78
2022/03/05 08:26:13;;;;;;;22.67;10.40;;;;;;;2.94;68.39;100761.80;127403;1101;101961;-78
2022/03/05 08:28:45;;;;;;;22.17;10.33;;;;;;;2.97;68.48;100762.02;127162;1101;101639;-78
2022/03/05 08:31:17;;;;;;;27.20;12.50;;;;;;;3.00;68.96;100767.41;127129;1101;101557;-80
2022/03/05 08:33:50;;;;;;;25.17;11.93;;;;;;;3.05;67.96;100772.92;126242;1101;102259;-79
2022/03/05 08:36:21;;;;;;;24.97;11.43;;;;;;;3.09;68.10;100769.77;127091;1101;101492;-80
2022/03/05 08:38:53;;;;;;;28.33;12.80;;;;;;;3.06;68.73;100773.03;127118;1101;101594;-79
2022/03/05 08:41:25;;;;;;;23.30;11.13;;;;;;;3.09;67.30;100774.95;126267;1100;101617;-79
2022/03/05 08:43:56;;;;;;;21.70;10.67;;;;;;;3.07;66.91;100776.55;126917;1101;102244;-78
2022/03/05 08:46:27;;;;;;;28.70;13.27;;;;;;;3.05;68.13;100781.62;127130;1101;101903;-77
2022/03/05 08:48:59;;;;;;;23.63;11.17;;;;;;;3.04;66.99;100778.92;127227;1100;101470;-80
2022/03/05 08:51:30;;;;;;;24.93;11.30;;;;;;;2.95;67.01;100773.98;127270;1101;101072;-79
2022/03/05 08:54:02;;;;;;;24.43;10.60;;;;;;;2.93;66.43;100785.02;127118;1100;101214;-81
2022/03/05 08:56:33;;;;;;;24.63;11.57;;;;;;;2.95;66.91;100779.16;126593;1101;101127;-80
2022/03/05 08:59:05;;;;;;;24.77;12.03;;;;;;;2.98;67.63;100776.79;126997;1101;101936;-80
2022/03/05 09:01:36;;;;;;;26.07;11.73;;;;;;;3.03;65.99;100784.89;127301;1100;101179;-80
2022/03/05 09:04:08;;;;;;;27.17;11.20;;;;;;;3.01;66.48;100787.38;126250;1102;101598;-80
2022/03/05 09:06:39;;;;;;;26.20;12.00;;;;;;;3.00;66.57;100780.38;126302;1101;101624;-80
2022/03/05 09:09:11;;;;;;;23.43;11.87;;;;;;;3.04;67.25;100782.41;127319;1100;101541;-80
2022/03/05 09:11:42;;;;;;;25.10;12.17;;;;;;;3.06;65.83;100790.30;127017;1100;101956;-80
2022/03/05 09:14:14;;;;;;;22.83;10.63;;;;;;;3.15;67.01;100784.86;127158;1100;101499;-80
2022/03/05 09:16:46;;;;;;;25.13;11.10;;;;;;;3.13;66.35;100789.02;127266;1101;101158;-80
2022/03/05 09:19:17;;;;;;;23.70;10.60;;;;;;;3.14;66.66;100798.61;127196;1100;101594;-80
2022/03/05 09:21:48;;;;;;;23.97;10.67;;;;;;;3.10;66.05;100796.58;127212;1100;101507;-81
2022/03/05 09:24:20;;;;;;;23.23;10.67;;;;;;;3.05;67.31;100798.85;127136;1101;102668;-80
2022/03/05 09:26:51;;;;;;;24.87;10.77;;;;;;;3.03;65.66;100798.74;127261;1101;101695;-78
2022/03/05 09:29:23;;;;;;;23.23;10.63;;;;;;;3.02;66.61;100804.74;127403;1100;101559;-78
2022/03/05 09:31:55;;;;;;;21.10;9.70;;;;;;;3.00;64.94;100806.30;127383;1100;101536;-78
2022/03/05 09:34:26;;;;;;;20.23;8.40;;;;;;;2.94;63.46;100812.75;127266;1100;101492;-77
2022/03/05 09:36:57;;;;;;;20.50;9.43;;;;;;;2.90;65.15;100809.05;127402;1101;101954;-78
2022/03/05 09:39:29;;;;;;;22.73;10.00;;;;;;;2.88;65.22;100810.61;127374;1100;101181;-78
2022/03/05 09:42:01;;;;;;;25.60;9.27;;;;;;;2.90;65.08;100810.72;126268;1102;101713;-78
2022/03/05 09:44:32;;;;;;;23.17;10.40;;;;;;;2.94;65.07;100810.16;127179;1100;101706;-78
2022/03/05 09:47:05;;;;;;;24.20;10.50;;;;;;;2.96;65.02;100812.09;127210;1100;101580;-78
2022/03/05 09:49:39;;;;;;;20.83;9.47;;;;;;;2.97;65.14;100812.98;126265;1100;101842;-78
2022/03/05 09:52:11;;;;;;;26.33;9.93;;;;;;;2.98;64.63;100812.19;127375;1101;101544;-78
2022/03/05 09:54:42;;;;;;;23.07;9.37;;;;;;;2.97;64.68;100806.09;126249;1102;101578;-78
2022/03/05 09:57:15;;;;;;;19.80;9.00;;;;;;;3.01;64.52;100808.12;127394;1101;101428;-78
2022/03/05 09:59:46;;;;;;;20.47;9.00;;;;;;;3.08;64.19;100806.84;127364;1100;101515;-77
2022/03/05 10:02:18;;;;;;;21.47;9.43;;;;;;;3.13;63.03;100808.09;127390;1101;101842;-78
2022/03/05 10:04:50;;;;;;;21.20;8.60;;;;;;;3.18;63.87;100808.38;127216;1100;101558;-78
2022/03/05 10:07:22;;;;;;;20.63;9.30;;;;;;;3.18;63.91;100806.72;127408;1100;101528;-78
2022/03/05 10:10:09;;;;;;;18.53;8.63;;;;;;;3.19;64.13;100812.79;127370;1101;101502;-78
2022/03/05 10:12:41;;;;;;;20.30;9.07;;;;;;;3.21;64.84;100813.78;127435;1101;101027;-78
2022/03/05 10:15:17;;;;;;;20.37;7.77;;;;;;;3.20;63.64;100818.08;126261;1101;101924;-78
2022/03/05 10:17:57;;;;;;;18.97;8.13;;;;;;;3.14;64.10;100815.06;127368;1102;101789;-79
2022/03/05 10:20:31;;;;;;;19.00;8.00;;;;;;;3.10;62.66;100813.06;127366;1100;101710;-80
2022/03/05 10:23:05;;;;;;;17.40;6.95;;;;;;;3.06;62.19;100822.30;126321;1101;101835;-79
2022/03/05 10:25:41;;;;;;;18.13;7.20;;;;;;;3.00;62.46;100818.38;126261;1102;101670;-79
2022/03/05 10:28:16;;;;;;;15.80;6.33;;;;;;;2.97;62.35;100812.98;126276;1101;102906;-79
2022/03/05 10:30:49;;;;;;;19.27;6.60;;;;;;;2.93;61.85;100821.31;126294;1102;101671;-79
2022/03/05 10:33:32;;;;;;;17.25;6.55;;;;;;;2.92;62.43;100819.53;126324;1102;101237;-78
2022/03/05 10:36:05;;;;;;;18.47;7.23;;;;;;;2.92;62.15;100824.72;126254;1102;101186;-79
2022/03/05 10:38:47;;;;;;;14.97;6.67;;;;;;;2.90;63.13;100818.50;126280;1102;101730;-79
2022/03/05 10:41:20;;;;;;;16.60;7.10;;;;;;;2.86;61.49;100815.69;126278;1102;103085;-79
2022/03/05 10:44:07;;;;;;;18.27;7.17;;;;;;;2.85;61.94;100812.98;126211;1101;101586;-78
2022/03/05 10:46:43;;;;;;;17.73;7.20;;;;;;;2.83;62.61;100806.80;126263;1101;101681;-79
2022/03/05 10:49:18;;;;;;;15.77;6.67;;;;;;;2.80;61.85;100801.41;126264;1102;101642;-79
2022/03/05 10:51:51;;;;;;;15.80;6.27;;;;;;;2.80;61.92;100812.66;126322;1102;101594;-79
2022/03/05 10:54:30;;;;;;;15.63;6.40;;;;;;;2.80;61.74;100816.95;126579;1099;102904;-79
2022/03/05 10:57:09;;;;;;;14.43;6.57;;;;;;;2.83;61.73;100807.70;127023;1100;109329;-79
2022/03/05 10:59:42;;;;;;;14.70;6.03;;;;;;;2.89;61.71;100804.65;127332;1101;101655;-79
2022/03/05 11:02:16;;;;;;;14.93;6.07;;;;;;;2.94;61.45;100816.23;127158;1100;101549;-79
2022/03/05 11:04:49;;;;;;;11.63;5.50;;;;;;;2.94;60.92;100805.87;127032;1101;101070;-79
2022/03/05 11:07:23;;;;;;;9.53;4.83;;;;;;;2.97;60.80;100815.56;127312;1098;118932;-79
2022/03/05 11:09:57;;;;;;;12.60;4.90;;;;;;;2.95;59.95;100820.64;127471;1098;101677;-79
2022/03/05 11:12:30;;;;;;;13.15;6.28;;;;;;;2.89;60.45;100812.42;127532;1098;101546;-80
2022/03/05 11:15:02;;;;;;;14.07;6.50;;;;;;;2.84;59.88;100804.32;126257;1099;101602;-79
2022/03/05 11:17:34;;;;;;;13.23;6.23;;;;;;;2.82;60.68;100813.69;127303;1100;101497;-79
2022/03/05 11:20:06;;;;;;;13.13;5.53;;;;;;;2.80;60.66;100812.66;127415;1100;102727;-79
2022/03/05 11:22:38;;;;;;;14.43;5.70;;;;;;;2.83;61.36;100812.87;126253;1100;101587;-79
2022/03/05 11:25:15;;;;;;;10.53;4.80;;;;;;;2.86;60.62;100815.69;127391;1100;101530;-79
2022/03/05 11:27:58;;;;;;;12.03;5.40;;;;;;;2.84;60.32;100819.87;127280;1100;111504;-79
2022/03/05 11:30:39;;;;;;;11.13;5.07;;;;;;;2.84;60.03;100818.98;127398;1100;101504;-78